Observations for BENSON RAF, United Kingdom (EGUB)

EGUB 130850Z 11013KT 9999 FEW012 BKN200 03/M00 Q1016 BLU NOSIG  
EGUB 130750Z 10013KT 9999 FEW012 BKN180 02/M00 Q1015 BLU NOSIG  
EGUB 130650Z 10015KT 9999 FEW012 BKN250 02/00 Q1015 BLU NOSIG   
EGUB 130550Z AUTO 11011KT 9999 // FEW012/// 02/00 Q1015 
EGUB 130450Z AUTO 10011KT 9000 // NCD 02/00 Q1015   
EGUB 130350Z AUTO 11012KT 9999 // NCD 02/00 Q1015   
EGUB 130250Z AUTO 10013KT 9999 // NCD 02/00 Q1016   
EGUB 130150Z AUTO 10013KT 9999 // NCD 02/00 Q1016   
EGUB 130050Z AUTO 11010KT 9999 // NCD 02/M00 Q1017  
EGUB 122350Z AUTO 11010KT 9999 // NCD 02/M01 Q1017  
EGUB 122250Z 12011KT CAVOK 03/M00 Q1017 BLU NOSIG   
EGUB 122150Z 12014KT CAVOK 03/M01 Q1017 BLU NOSIG   
EGUB 122050Z 13005KT CAVOK 03/M02 Q1018 BLU NOSIG   
EGUB 121950Z 09008KT 9999 FEW034 SCT250 03/M02 Q1018 BLU NOSIG  
EGUB 121850Z 11007KT 9999 SCT034 SCT250 03/M01 Q1019 BLU NOSIG  
EGUB 121750Z 12008KT CAVOK 03/M02 Q1019 BLU NOSIG   
EGUB 121650Z 12008KT 9999 FEW032 04/M01 Q1020 BLU NOSIG 
EGUB 121550Z 12012KT 9999 SCT032 05/M00 Q1020 BLU NOSIG 
EGUB 121450Z 12012KT 9999 FEW025 BKN035 06/02 Q1020 BLU NOSIG   
EGUB 121350Z 13009KT 9999 FEW022 BKN035 07/03 Q1020 BLU NOSIG   
EGUB 121250Z 12008KT 9999 FEW020 BKN032 07/04 Q1021 BLU NOSIG   
EGUB 121150Z 13008KT 9999 FEW018 OVC032 07/05 Q1021 BLU NOSIG   
EGUB 121050Z 13010KT 9999 FEW014 BKN038 07/05 Q1021 BLU NOSIG   
EGUB 120950Z 12011KT 9999 FEW022 SCT040 BKN250 07/05 Q1021 BLU NOSIG
EGUB 120850Z 11009KT 9999 FEW022 SCT140 BKN250 06/05 Q1021 BLU NOSIG